Time;durP1;ratioP1;P1;durP2;ratioP2;P2;SDS_P1;SDS_P2;PMS_P1;PMS_P2;Temp;Humidity;BMP_temperature;BMP_pressure;BME280_temperature;BME280_humidity;BME280_pressure;Samples;Min_cycle;Max_cycle;Signal;HPM_P1;HPM_P2
2022/08/12 04:18:12;;;;;;;9.10;2.83;;;;;;;23.02;38.75;100747.69;4196147;27;20277;-66
2022/08/12 04:20:41;;;;;;;12.10;3.53;;;;;;;23.05;38.71;100741.84;5124578;27;20292;-66
2022/08/12 04:23:11;;;;;;;10.63;2.93;;;;;;;23.03;38.72;100735.84;5127977;27;20228;-67
2022/08/12 04:25:43;;;;;;;8.40;3.03;;;;;;;23.06;38.87;100740.78;5117027;27;20209;-67
2022/08/12 04:28:12;;;;;;;3.90;2.47;;;;;;;23.09;38.89;100748.47;5114008;27;20206;-67
2022/08/12 04:30:41;;;;;;;6.27;2.97;;;;;;;23.09;38.83;100743.06;5111635;27;20210;-67
2022/08/12 04:33:09;;;;;;;5.83;2.67;;;;;;;23.02;38.80;100742.28;5127200;27;20225;-67
2022/08/12 04:35:38;;;;;;;5.57;2.80;;;;;;;23.09;38.67;100741.19;5122433;27;20300;-67
2022/08/12 04:38:07;;;;;;;7.40;3.17;;;;;;;23.11;38.75;100741.78;5119058;27;20263;-67
2022/08/12 04:40:36;;;;;;;7.67;2.70;;;;;;;23.17;38.50;100742.75;5117729;27;20220;-67
2022/08/12 04:43:05;;;;;;;8.43;3.03;;;;;;;23.19;38.88;100748.78;5121583;27;20729;-67
2022/08/12 04:45:53;;;;;;;7.63;3.13;;;;;;;23.08;38.65;100746.81;5118421;27;20229;-67
2022/08/12 04:48:21;;;;;;;6.80;2.50;;;;;;;22.93;39.25;100732.81;5114535;27;20409;-67
2022/08/12 04:50:50;;;;;;;7.23;2.80;;;;;;;22.80;39.14;100734.56;5121453;27;20208;-67
2022/08/12 04:53:18;;;;;;;5.03;2.53;;;;;;;22.74;39.59;100727.38;5120308;27;20229;-66
2022/08/12 04:55:47;;;;;;;4.23;2.60;;;;;;;22.66;39.74;100743.84;5119179;27;20202;-66
2022/08/12 04:58:14;;;;;;;5.47;2.77;;;;;;;22.67;39.62;100745.50;5121406;27;20210;-66
2022/08/12 05:00:56;;;;;;;7.20;3.13;;;;;;;22.61;39.84;100738.25;5120965;27;20254;-66
2022/08/12 05:03:25;;;;;;;8.10;3.00;;;;;;;22.60;39.86;100742.03;5118503;27;20201;-67
2022/08/12 05:05:55;;;;;;;4.70;3.10;;;;;;;22.64;39.72;100745.09;5124824;27;20300;-66
2022/08/12 05:08:24;;;;;;;9.87;2.83;;;;;;;22.60;39.85;100743.88;5119739;27;20557;-67
2022/08/12 05:10:52;;;;;;;8.90;2.80;;;;;;;22.58;39.91;100746.81;5119907;27;20673;-66
2022/08/12 05:13:23;;;;;;;8.50;2.90;;;;;;;22.62;40.01;100747.19;5122292;27;20236;-66
2022/08/12 05:15:51;;;;;;;9.00;3.00;;;;;;;22.62;39.98;100753.41;5118039;27;20206;-66
2022/08/12 05:18:37;;;;;;;7.77;3.07;;;;;;;22.67;39.79;100756.31;5123683;27;20321;-66
2022/08/12 05:21:09;;;;;;;10.40;3.13;;;;;;;22.76;39.83;100755.00;5144358;27;20295;-66
2022/08/12 05:23:38;;;;;;;6.20;2.80;;;;;;;22.72;40.11;100755.63;5139950;27;20887;-66
2022/08/12 05:26:06;;;;;;;4.93;2.60;;;;;;;22.75;40.13;100756.06;5140948;27;21386;-66
2022/08/12 05:28:34;;;;;;;8.87;2.43;;;;;;;22.71;40.07;100760.19;5144273;27;20211;-67
2022/08/12 05:31:02;;;;;;;6.17;2.93;;;;;;;22.69;40.35;100765.00;5143024;27;20205;-67
2022/08/12 05:33:37;;;;;;;6.67;2.90;;;;;;;22.77;40.02;100764.78;5139068;27;20227;-69
2022/08/12 05:36:08;;;;;;;9.60;3.17;;;;;;;22.94;39.92;100761.50;5142234;27;20210;-66
2022/08/12 05:41:23;;;;;;;8.13;2.83;;;;;;;23.20;39.65;100772.06;5137568;27;20219;-68
2022/08/12 05:43:52;;;;;;;7.43;2.87;;;;;;;23.23;39.64;100766.19;5145811;27;20216;-67
2022/08/12 05:46:20;;;;;;;9.40;3.20;;;;;;;23.29;39.44;100776.16;5143943;27;20218;-68
2022/08/12 05:48:50;;;;;;;7.63;2.97;;;;;;;23.34;39.55;100773.59;5144586;27;20209;-67
2022/08/12 05:51:19;;;;;;;5.80;2.93;;;;;;;23.37;39.66;100783.97;5144908;27;20197;-67
2022/08/12 05:53:47;;;;;;;5.83;3.10;;;;;;;23.36;39.79;100782.31;5145244;27;20228;-68
2022/08/12 05:56:23;;;;;;;11.13;3.43;;;;;;;23.44;39.62;100790.13;5145065;27;20200;-67
2022/08/12 05:58:51;;;;;;;7.07;3.03;;;;;;;23.46;39.70;100779.91;5143862;27;20215;-67
2022/08/12 06:01:20;;;;;;;9.97;3.17;;;;;;;23.55;39.56;100791.31;5151661;27;20311;-67
2022/08/12 06:04:08;;;;;;;7.47;3.13;;;;;;;23.58;39.72;100786.25;5150524;27;20276;-67
2022/08/12 06:06:41;;;;;;;4.83;3.13;;;;;;;23.59;39.38;100787.06;5154000;27;20299;-67
2022/08/12 06:09:10;;;;;;;15.03;3.33;;;;;;;23.61;39.75;100785.81;5153873;27;20197;-67
2022/08/12 06:11:40;;;;;;;5.33;2.60;;;;;;;23.68;39.43;100787.59;5150342;27;20208;-67
2022/08/12 06:14:26;;;;;;;7.90;3.03;;;;;;;23.77;39.56;100786.25;5150828;27;20596;-68
2022/08/12 06:16:55;;;;;;;8.67;3.37;;;;;;;23.84;39.50;100782.41;5152358;27;20622;-68
2022/08/12 06:19:24;;;;;;;10.38;3.15;;;;;;;23.86;39.64;100782.16;5153422;27;20692;-68
2022/08/12 06:22:14;;;;;;;7.23;2.90;;;;;;;23.92;39.41;100787.50;5151157;27;20208;-68
2022/08/12 06:24:41;;;;;;;7.00;3.13;;;;;;;23.99;39.24;100792.84;5154215;27;20228;-68
2022/08/12 06:27:10;;;;;;;10.60;3.33;;;;;;;24.02;39.30;100789.66;5145975;27;20213;-69
2022/08/12 06:29:38;;;;;;;9.80;3.17;;;;;;;24.06;39.12;100788.16;5150190;27;20552;-69
2022/08/12 06:32:27;;;;;;;4.50;2.60;;;;;;;24.11;39.31;100791.00;5149679;27;20670;-68
2022/08/12 06:34:55;;;;;;;11.48;3.15;;;;;;;24.20;39.09;100791.50;5148166;27;20236;-69
2022/08/12 06:43:18;;;;;;;10.27;3.47;;;;;;;24.38;39.12;100794.19;5132108;27;20201;-68
2022/08/12 06:45:48;;;;;;;12.75;3.42;;;;;;;24.41;39.22;100791.03;5139701;27;20762;-68
2022/08/12 06:48:16;;;;;;;9.38;3.13;;;;;;;24.46;39.06;100790.34;5143169;27;20227;-68
2022/08/12 06:50:44;;;;;;;8.55;3.17;;;;;;;24.46;39.37;100791.16;5144435;27;20706;-68
2022/08/12 06:53:13;;;;;;;6.35;2.80;;;;;;;24.51;39.32;100787.78;5140445;27;20224;-68
2022/08/12 06:55:41;;;;;;;6.72;3.60;;;;;;;24.55;39.48;100787.06;5143535;27;20214;-69
2022/08/12 06:58:26;;;;;;;5.53;2.90;;;;;;;24.58;39.37;100785.78;5148774;27;20597;-68
2022/08/12 07:00:54;;;;;;;6.82;3.00;;;;;;;24.61;39.36;100785.31;5146581;27;20204;-68
2022/08/12 07:03:26;;;;;;;9.10;2.83;;;;;;;24.66;39.51;100785.44;5147192;27;20649;-68
2022/08/12 07:05:55;;;;;;;5.22;2.90;;;;;;;24.70;39.15;100782.03;5149733;27;20653;-68
2022/08/12 07:08:26;;;;;;;9.32;3.15;;;;;;;24.74;38.96;100780.50;5136319;27;20219;-68
2022/08/12 07:10:57;;;;;;;9.13;3.08;;;;;;;24.79;39.24;100777.09;5140910;27;20592;-68
2022/08/12 07:13:27;;;;;;;4.65;2.40;;;;;;;24.80;38.41;100773.34;5139259;27;20239;-68
2022/08/12 07:15:55;;;;;;;8.68;3.00;;;;;;;24.88;38.28;100775.69;5140269;27;20291;-68
2022/08/12 07:18:29;;;;;;;5.95;2.38;;;;;;;24.92;38.41;100773.34;5139500;27;20426;-68
2022/08/12 07:20:57;;;;;;;5.85;2.63;;;;;;;24.94;38.15;100776.66;5141288;27;20189;-67
2022/08/12 07:23:26;;;;;;;11.02;3.10;;;;;;;24.95;38.37;100771.00;5146862;27;20324;-64
2022/08/12 07:25:56;;;;;;;8.13;2.33;;;;;;;25.03;37.75;100773.38;5149150;27;20205;-67
2022/08/12 07:28:28;;;;;;;12.30;2.55;;;;;;;25.23;37.36;100769.47;5151088;27;20200;-63
2022/08/12 07:30:57;;;;;;;9.27;2.67;;;;;;;25.55;36.08;100767.19;5149334;27;20534;-67
2022/08/12 07:33:27;;;;;;;6.43;2.10;;;;;;;25.47;36.16;100765.66;5147339;27;20228;-67
2022/08/12 07:35:58;;;;;;;6.70;1.90;;;;;;;25.46;36.19;100772.16;5146163;27;20208;-67
2022/08/12 07:38:30;;;;;;;5.68;2.47;;;;;;;25.54;35.82;100771.78;5148030;27;20200;-67
2022/08/12 07:41:04;;;;;;;6.95;2.10;;;;;;;25.61;35.67;100774.41;5151192;27;20628;-68
2022/08/12 07:43:35;;;;;;;8.43;1.90;;;;;;;25.64;35.76;100780.19;5150532;27;20209;-68
2022/08/12 07:46:06;;;;;;;10.18;1.98;;;;;;;25.67;35.50;100774.28;5149872;27;20209;-68
2022/08/12 07:48:37;;;;;;;7.03;2.13;;;;;;;25.70;35.77;100778.38;5150184;27;20230;-67
2022/08/12 07:51:05;;;;;;;5.93;2.20;;;;;;;25.78;35.84;100781.56;5151396;27;20218;-67
2022/08/12 07:53:35;;;;;;;3.38;1.92;;;;;;;25.89;35.34;100779.03;5151117;27;20228;-68
2022/08/12 07:56:24;;;;;;;5.53;2.22;;;;;;;26.01;35.29;100779.84;5149140;27;20196;-67
2022/08/12 07:58:57;;;;;;;5.68;2.70;;;;;;;26.09;35.25;100768.59;5149801;27;20205;-67
2022/08/12 08:01:26;;;;;;;8.77;2.08;;;;;;;26.20;35.34;100773.16;5150237;27;20698;-67
2022/08/12 08:06:46;;;;;;;4.70;2.20;;;;;;;26.45;34.02;100765.47;5147591;27;20725;-67
2022/08/12 08:09:17;;;;;;;14.85;2.28;;;;;;;26.64;33.80;100759.81;5144859;27;20215;-67
2022/08/12 08:14:30;;;;;;;3.42;2.05;;;;;;;26.85;33.53;100769.94;5148741;27;20217;-67
2022/08/12 08:17:02;;;;;;;5.60;1.75;;;;;;;26.90;33.28;100761.88;5140820;27;20201;-67
2022/08/12 08:19:32;;;;;;;7.70;2.80;;;;;;;27.11;33.13;100763.84;5134979;27;20743;-68
2022/08/12 08:29:50;;;;;;;4.55;1.98;;;;;;;27.47;32.81;100761.59;5129242;27;20555;-68
2022/08/12 08:32:19;;;;;;;6.75;2.10;;;;;;;27.53;33.03;100766.84;5134909;27;20297;-68
2022/08/12 08:34:46;;;;;;;4.57;1.90;;;;;;;27.65;32.79;100759.44;5128187;27;20217;-68
2022/08/12 08:37:21;;;;;;;3.33;1.90;;;;;;;27.77;32.88;100762.03;5128501;27;20615;-69
2022/08/12 08:39:49;;;;;;;6.97;2.05;;;;;;;27.91;32.15;100757.81;5128787;27;20209;-69
2022/08/12 08:45:11;;;;;;;6.35;2.42;;;;;;;28.13;31.33;100743.34;5130903;27;20208;-69
2022/08/12 08:47:43;;;;;;;4.88;2.45;;;;;;;28.38;30.59;100740.88;5133709;27;20291;-69
2022/08/12 08:50:14;;;;;;;9.50;2.47;;;;;;;28.37;30.83;100745.53;5134567;27;20201;-69
2022/08/12 08:52:42;;;;;;;6.40;1.95;;;;;;;28.41;30.92;100746.63;5135944;27;20201;-68
2022/08/12 08:55:12;;;;;;;7.03;1.80;;;;;;;28.42;30.34;100752.91;5132457;27;20221;-68
2022/08/12 08:57:42;;;;;;;8.07;1.88;;;;;;;28.55;30.11;100748.94;5131610;27;20306;-68
2022/08/12 09:00:18;;;;;;;9.38;2.35;;;;;;;28.69;29.99;100742.78;5132997;27;20202;-68
2022/08/12 09:02:47;;;;;;;6.53;1.60;;;;;;;28.84;29.51;100744.03;5135776;27;20557;-67
2022/08/12 09:05:26;;;;;;;3.10;1.95;;;;;;;29.00;29.16;100730.22;5132852;27;20208;-67
2022/08/12 09:08:10;;;;;;;2.85;2.00;;;;;;;29.07;28.64;100728.06;5133530;27;20624;-68
2022/08/12 09:10:49;;;;;;;3.72;1.75;;;;;;;29.08;29.20;100728.88;5131296;27;20205;-68
2022/08/12 09:13:27;;;;;;;4.25;1.70;;;;;;;29.23;29.03;100725.41;5131944;27;20228;-68
2022/08/12 09:16:16;;;;;;;9.75;1.73;;;;;;;29.26;29.21;100727.63;5130778;27;20562;-67
2022/08/12 09:19:04;;;;;;;4.38;1.83;;;;;;;29.30;29.11;100720.53;5140034;27;20232;-67
2022/08/12 09:21:32;;;;;;;3.00;1.83;;;;;;;29.36;28.67;100731.25;5158091;27;20206;-67
2022/08/12 09:24:20;;;;;;;6.38;2.38;;;;;;;29.39;28.81;100725.25;5151822;27;20575;-69
2022/08/12 09:26:49;;;;;;;5.47;1.90;;;;;;;29.56;28.62;100725.88;5152266;27;20207;-69
2022/08/12 09:29:20;;;;;;;4.43;1.42;;;;;;;29.57;28.66;100723.97;5150172;27;20215;-69
2022/08/12 09:32:09;;;;;;;4.53;1.90;;;;;;;29.70;28.85;100717.19;5152485;27;20213;-69
2022/08/12 09:34:57;;;;;;;4.32;1.85;;;;;;;29.82;28.39;100715.84;5150854;27;20216;-69
2022/08/12 09:37:25;;;;;;;4.65;1.50;;;;;;;29.88;27.59;100714.78;5150844;27;20239;-69
2022/08/12 09:39:53;;;;;;;5.32;2.17;;;;;;;29.96;28.07;100718.94;5149981;27;20205;-69
2022/08/12 09:45:47;;;;;;;3.80;1.83;;;;;;;30.10;27.17;100709.09;5157324;27;20192;-69
2022/08/12 09:48:36;;;;;;;4.22;1.50;;;;;;;30.16;27.43;100707.19;5143830;27;20216;-68
2022/08/12 09:51:07;;;;;;;4.13;1.70;;;;;;;30.25;26.82;100705.56;5143732;27;20215;-68
2022/08/12 09:53:49;;;;;;;2.90;1.70;;;;;;;30.23;26.95;100705.00;5145304;27;20245;-67
2022/08/12 09:56:37;;;;;;;9.63;2.10;;;;;;;30.33;26.20;100701.47;5147222;27;20212;-67
2022/08/12 09:59:25;;;;;;;3.75;2.15;;;;;;;30.35;26.33;100705.53;5146489;27;20673;-68
2022/08/12 10:02:13;;;;;;;2.95;1.75;;;;;;;30.27;26.77;100693.25;5145270;27;20225;-69
2022/08/12 10:05:02;;;;;;;4.93;1.98;;;;;;;30.27;27.27;100693.25;5146308;27;20207;-68
2022/08/12 10:07:30;;;;;;;4.82;1.77;;;;;;;30.26;27.25;100694.34;5148074;27;20197;-68
2022/08/12 10:10:09;;;;;;;4.80;1.73;;;;;;;30.33;27.48;100690.53;5147906;27;20200;-69
2022/08/12 10:15:43;;;;;;;11.65;1.92;;;;;;;30.51;26.97;100676.28;5151473;27;20312;-68
2022/08/12 10:18:31;;;;;;;4.45;1.92;;;;;;;30.66;26.43;100668.09;5149048;27;20612;-68
2022/08/12 10:21:07;;;;;;;3.55;1.40;;;;;;;30.64;26.20;100664.81;5150322;27;20721;-69
2022/08/12 10:23:36;;;;;;;20.40;2.28;;;;;;;30.58;26.96;100661.25;5152793;27;20662;-66
2022/08/12 10:32:16;;;;;;;1.98;1.25;;;;;;;30.52;26.22;100648.66;5147942;27;20200;-67
2022/08/12 10:34:50;;;;;;;6.38;1.70;;;;;;;30.61;26.13;100654.41;5147027;27;20921;-69
2022/08/12 10:37:24;;;;;;;3.40;1.70;;;;;;;30.65;25.63;100645.38;5151774;27;20196;-70
2022/08/12 10:40:12;;;;;;;8.48;1.77;;;;;;;30.66;26.04;100651.66;5150939;27;20586;-67
2022/08/12 10:45:34;;;;;;;7.97;1.75;;;;;;;30.83;25.26;100641.22;5144588;27;20701;-67
2022/08/12 10:48:05;;;;;;;3.65;1.90;;;;;;;30.87;24.89;100636.81;5153054;27;20200;-67
2022/08/12 10:50:52;;;;;;;2.65;1.40;;;;;;;30.91;24.86;100634.34;5151228;27;20587;-68
2022/08/12 10:53:32;;;;;;;3.00;1.70;;;;;;;30.84;25.02;100631.91;5152502;27;20203;-68
2022/08/12 10:56:14;;;;;;;3.10;1.40;;;;;;;30.87;25.09;100630.53;5150093;27;20336;-68
2022/08/12 10:58:42;;;;;;;4.00;1.55;;;;;;;30.88;25.43;100634.91;5146400;27;20574;-67
2022/08/12 11:01:15;;;;;;;5.78;1.83;;;;;;;30.86;25.40;100635.19;5151286;27;20216;-68
2022/08/12 11:04:04;;;;;;;3.63;1.60;;;;;;;30.94;25.10;100628.31;5157541;27;20220;-68
2022/08/12 11:06:52;;;;;;;3.08;1.77;;;;;;;30.96;25.02;100624.19;5150003;27;20204;-67
2022/08/12 11:09:38;;;;;;;6.47;1.80;;;;;;;30.95;25.74;100610.81;5147022;27;20207;-67
2022/08/12 11:12:22;;;;;;;4.10;1.80;;;;;;;31.02;25.14;100617.63;5149996;27;20788;-68
2022/08/12 11:15:10;;;;;;;7.55;2.03;;;;;;;31.04;24.69;100620.91;5151401;27;20232;-68
2022/08/12 11:17:51;;;;;;;5.90;1.90;;;;;;;31.14;24.92;100622.00;5149800;27;20211;-68
2022/08/12 11:20:22;;;;;;;3.17;1.40;;;;;;;31.24;24.48;100619.19;5147793;27;20232;-68
2022/08/12 11:22:58;;;;;;;3.35;1.48;;;;;;;31.23;24.82;100612.06;5145353;27;20223;-67
2022/08/12 11:25:31;;;;;;;6.47;1.60;;;;;;;31.32;24.78;100613.09;5151608;27;20200;-68
2022/08/12 11:28:19;;;;;;;4.10;1.73;;;;;;;31.34;24.13;100619.13;5149904;27;20233;-67
2022/08/12 11:31:05;;;;;;;2.70;1.60;;;;;;;31.46;23.40;100622.38;5154722;27;20201;-68
2022/08/12 11:33:40;;;;;;;2.92;1.60;;;;;;;31.43;23.48;100614.69;5151652;27;20241;-67
2022/08/12 11:36:29;;;;;;;3.55;1.73;;;;;;;31.44;24.26;100613.59;5151169;27;20327;-68
2022/08/12 11:38:58;;;;;;;4.93;1.83;;;;;;;31.52;23.73;100603.97;5153789;27;20196;-67
2022/08/12 11:41:34;;;;;;;3.85;1.70;;;;;;;31.62;23.77;100596.53;5152478;27;20643;-68
2022/08/12 11:44:03;;;;;;;8.38;1.50;;;;;;;31.60;23.32;100592.41;5152005;27;20204;-67
2022/08/12 11:46:53;;;;;;;3.17;1.55;;;;;;;31.66;23.74;100594.88;5143495;27;20201;-67
2022/08/12 11:49:22;;;;;;;2.55;1.58;;;;;;;31.63;23.35;100595.44;5144538;27;20197;-67
2022/08/12 11:52:01;;;;;;;3.45;1.50;;;;;;;31.56;23.28;100594.09;5144437;27;20279;-68
2022/08/12 11:54:29;;;;;;;6.90;2.00;;;;;;;31.52;23.33;100585.59;5141093;27;20587;-68
2022/08/12 11:56:59;;;;;;;7.25;1.77;;;;;;;31.42;23.18;100585.66;5150269;27;20226;-69
2022/08/12 11:59:30;;;;;;;4.13;1.40;;;;;;;31.24;23.15;100591.78;5147842;27;20250;-68
2022/08/12 12:02:17;;;;;;;3.63;1.63;;;;;;;31.08;22.87;100587.50;5148301;27;20201;-68
2022/08/12 12:04:48;;;;;;;4.78;1.50;;;;;;;30.98;23.42;100589.13;5149379;27;20200;-69
2022/08/12 12:07:21;;;;;;;3.42;1.70;;;;;;;30.86;23.33;100580.44;5144311;27;20207;-68
2022/08/12 12:09:49;;;;;;;3.45;1.75;;;;;;;30.80;23.45;100580.72;5141710;27;20216;-69
2022/08/12 12:12:22;;;;;;;3.75;1.35;;;;;;;30.68;23.45;100581.06;5139395;27;20221;-67
2022/08/12 12:14:51;;;;;;;12.93;1.88;;;;;;;30.51;24.16;100573.16;5141436;27;20303;-66
2022/08/12 12:17:22;;;;;;;6.63;1.88;;;;;;;30.42;23.99;100569.31;5140561;27;20709;-66
